Time;durP1;ratioP1;P1;durP2;ratioP2;P2;SDS_P1;SDS_P2;PMS_P1;PMS_P2;Temp;Humidity;BMP_temperature;BMP_pressure;BME280_temperature;BME280_humidity;BME280_pressure;Samples;Min_cycle;Max_cycle;Signal;HPM_P1;HPM_P2
2021/06/13 00:00:42;;;;;;;12.55;5.00;;;15.90;66.70;;;;;;5088440;28;20492;-79
2021/06/13 00:03:08;;;;;;;9.67;4.80;;;15.90;67.00;;;;;;5086746;28;20387;-79
2021/06/13 00:05:33;;;;;;;12.77;5.00;;;15.80;67.00;;;;;;5096885;28;20027;-79
2021/06/13 00:07:59;;;;;;;10.90;5.13;;;15.80;67.30;;;;;;5107667;28;20497;-79
2021/06/13 00:10:25;;;;;;;11.93;5.18;;;15.70;68.20;;;;;;5089895;28;20028;-79
2021/06/13 00:12:50;;;;;;;10.75;5.10;;;15.70;67.80;;;;;;5071568;28;20031;-79
2021/06/13 00:15:21;;;;;;;9.80;5.10;;;15.60;67.80;;;;;;5086847;28;20107;-79
2021/06/13 00:17:46;;;;;;;9.77;5.60;;;15.60;68.00;;;;;;5097171;28;20043;-79
2021/06/13 00:20:15;;;;;;;11.00;5.38;;;15.60;68.10;;;;;;5093753;28;20024;-79
2021/06/13 00:22:41;;;;;;;;;;;15.50;68.30;;;;;;5096169;28;20035;-79
2021/06/13 00:25:09;;;;;;;10.60;5.45;;;15.50;68.20;;;;;;5089556;28;19908;-79
2021/06/13 00:27:34;;;;;;;10.35;5.25;;;15.40;68.80;;;;;;5094792;28;20047;-79
2021/06/13 00:30:00;;;;;;;16.95;5.80;;;15.30;68.90;;;;;;5087253;28;20453;-78
2021/06/13 00:32:28;;;;;;;10.63;5.43;;;15.20;69.00;;;;;;5077465;28;20488;-79
2021/06/13 00:34:53;;;;;;;18.17;6.60;;;15.20;69.30;;;;;;5104313;28;20023;-79
2021/06/13 00:37:19;;;;;;;16.50;6.63;;;15.10;69.60;;;;;;5088405;28;20023;-79
2021/06/13 00:39:44;;;;;;;15.68;6.15;;;15.10;69.70;;;;;;5078522;28;20138;-78
2021/06/13 00:42:10;;;;;;;17.13;7.07;;;15.00;70.00;;;;;;5080053;28;20066;-79
2021/06/13 00:44:36;;;;;;;11.25;6.55;;;14.90;70.20;;;;;;5096451;28;20103;-79
2021/06/13 00:47:01;;;;;;;11.43;6.22;;;14.80;70.50;;;;;;5115227;28;20038;-79
2021/06/13 00:49:27;;;;;;;14.13;6.82;;;14.80;70.70;;;;;;5079218;28;20157;-79
2021/06/13 00:51:53;;;;;;;14.57;7.03;;;14.80;70.80;;;;;;5098119;28;20031;-79
2021/06/13 00:54:19;;;;;;;15.63;7.00;;;14.70;70.90;;;;;;5094547;28;20419;-79
2021/06/13 00:56:44;;;;;;;16.17;6.95;;;14.70;71.20;;;;;;5094090;28;20023;-79
2021/06/13 00:59:11;;;;;;;12.85;6.65;;;14.60;71.40;;;;;;5096600;28;20023;-79
2021/06/13 01:01:36;;;;;;;16.80;7.03;;;14.50;71.60;;;;;;5087138;28;20055;-78
2021/06/13 01:04:03;;;;;;;23.92;7.78;;;14.50;71.80;;;;;;5082541;28;20055;-78
2021/06/13 01:06:42;;;;;;;15.60;6.90;;;14.40;71.90;;;;;;5076403;28;20020;-79
2021/06/13 01:09:10;;;;;;;16.92;7.55;;;14.40;72.20;;;;;;5095016;28;20023;-79
2021/06/13 01:12:00;;;;;;;15.63;7.37;;;14.30;72.30;;;;;;5095588;28;20027;-79
2021/06/13 01:14:26;;;;;;;14.68;7.53;;;14.30;72.70;;;;;;5114254;28;20662;-79
2021/06/13 01:17:18;;;;;;;13.88;7.63;;;14.30;72.80;;;;;;5098244;28;20051;-79
2021/06/13 01:20:19;;;;;;;17.45;8.38;;;14.20;73.00;;;;;;5093401;28;20036;-79
2021/06/13 01:23:05;;;;;;;21.73;8.35;;;14.20;73.20;;;;;;5078819;28;20023;-79
2021/06/13 01:26:16;;;;;;;14.85;7.65;;;14.10;73.30;;;;;;5111182;28;20035;-79
2021/06/13 01:29:09;;;;;;;22.65;7.35;;;14.10;73.50;;;;;;5078477;28;20441;-79
2021/06/13 01:31:48;;;;;;;14.68;7.22;;;14.00;73.70;;;;;;5089220;28;20034;-78
2021/06/13 01:34:39;;;;;;;19.25;7.97;;;14.00;73.90;;;;;;5108804;28;20031;-79
2021/06/13 01:37:08;;;;;;;14.80;8.52;;;13.90;74.00;;;;;;5112337;28;20081;-78
2021/06/13 01:39:36;;;;;;;;;;;13.90;74.00;;;;;;5113935;28;20134;-79
2021/06/13 01:42:02;;;;;;;17.53;8.30;;;13.90;73.70;;;;;;5107481;28;19907;-79
2021/06/13 01:44:29;;;;;;;14.82;8.45;;;13.90;74.00;;;;;;5110596;28;20081;-78
2021/06/13 01:46:57;;;;;;;16.40;8.07;;;13.90;74.20;;;;;;5075730;28;20028;-79
2021/06/13 01:49:24;;;;;;;12.15;6.00;;;13.80;74.40;;;;;;5077545;28;20036;-79
2021/06/13 01:51:50;;;;;;;16.48;8.15;;;13.80;74.50;;;;;;5092294;28;20539;-79
2021/06/13 01:54:17;;;;;;;16.75;8.52;;;13.80;74.70;;;;;;5080715;28;20020;-79
2021/06/13 01:56:47;;;;;;;20.00;9.00;;;13.80;74.90;;;;;;5084472;28;20020;-79
2021/06/13 01:59:15;;;;;;;17.88;8.57;;;13.70;74.90;;;;;;5113907;28;20024;-79
2021/06/13 02:01:42;;;;;;;20.27;8.52;;;13.80;75.10;;;;;;5089209;28;20115;-78
2021/06/13 02:04:09;;;;;;;20.58;9.00;;;13.80;75.20;;;;;;5095185;28;20543;-78
2021/06/13 02:06:38;;;;;;;18.15;8.88;;;13.80;75.30;;;;;;5105879;28;20043;-79
2021/06/13 02:09:07;;;;;;;15.93;8.73;;;13.80;75.90;;;;;;5093450;28;20024;-79
2021/06/13 02:11:33;;;;;;;19.42;8.65;;;13.80;75.40;;;;;;5081275;28;20020;-79
2021/06/13 02:14:01;;;;;;;19.52;9.15;;;13.70;75.20;;;;;;5113490;28;20031;-78
2021/06/13 02:16:28;;;;;;;17.90;8.23;;;13.80;75.40;;;;;;5108392;28;20372;-79
2021/06/13 02:18:57;;;;;;;18.15;8.30;;;13.80;75.50;;;;;;5075720;28;20500;-79
2021/06/13 02:21:24;;;;;;;17.60;8.60;;;13.70;75.60;;;;;;5112913;28;20042;-78
2021/06/13 02:23:49;;;;;;;17.92;8.88;;;13.70;75.50;;;;;;5102147;28;20055;-79
2021/06/13 02:26:19;;;;;;;21.35;8.27;;;13.70;75.60;;;;;;5077659;28;20063;-78
2021/06/13 02:28:54;;;;;;;17.83;9.27;;;13.70;75.70;;;;;;5113503;28;20491;-79
2021/06/13 02:31:24;;;;;;;19.00;9.50;;;13.70;75.80;;;;;;5098881;28;20480;-79
2021/06/13 02:33:50;;;;;;;21.60;9.95;;;13.60;75.90;;;;;;5098466;28;20058;-79
2021/06/13 02:36:17;;;;;;;18.02;9.60;;;13.60;76.00;;;;;;5103570;28;20069;-79
2021/06/13 02:38:42;;;;;;;17.60;9.48;;;13.50;76.20;;;;;;5117085;28;20028;-79
2021/06/13 02:41:09;;;;;;;20.10;9.65;;;13.50;76.40;;;;;;5097655;28;20390;-78
2021/06/13 02:43:34;;;;;;;20.98;9.52;;;13.50;76.40;;;;;;5087172;28;20036;-79
2021/06/13 02:46:00;;;;;;;17.70;9.45;;;13.50;76.40;;;;;;5079068;28;20024;-79
2021/06/13 02:48:26;;;;;;;19.45;10.32;;;13.40;76.50;;;;;;5062145;28;20051;-78
2021/06/13 02:50:53;;;;;;;23.67;11.23;;;13.40;76.80;;;;;;5096652;28;20028;-79
2021/06/13 02:53:30;;;;;;;23.42;11.30;;;13.40;77.50;;;;;;5106650;28;20012;-79
2021/06/13 02:56:32;;;;;;;20.50;10.35;;;13.40;77.30;;;;;;5096827;28;20099;-79
2021/06/13 02:59:02;;;;;;;27.10;12.38;;;13.40;77.30;;;;;;5098100;28;20074;-78
2021/06/13 03:01:29;;;;;;;22.73;11.23;;;13.40;77.30;;;;;;5091762;28;20066;-78
2021/06/13 03:03:56;;;;;;;16.52;9.68;;;13.30;77.30;;;;;;5105671;28;20028;-79
2021/06/13 03:06:23;;;;;;;21.20;10.52;;;13.30;77.40;;;;;;5084476;28;20024;-78
2021/06/13 03:08:50;;;;;;;22.88;10.38;;;13.30;77.40;;;;;;5081216;28;20046;-78
2021/06/13 03:11:18;;;;;;;20.83;11.45;;;13.20;77.40;;;;;;5098199;28;20611;-79
2021/06/13 03:13:47;;;;;;;21.47;11.33;;;13.20;77.60;;;;;;5088794;28;20032;-79
2021/06/13 03:16:13;;;;;;;;;;;13.20;77.70;;;;;;5078727;28;20262;-78
2021/06/13 03:18:42;;;;;;;18.10;10.40;;;13.20;77.50;;;;;;5091510;28;19926;-79
2021/06/13 03:21:10;;;;;;;20.60;11.23;;;13.20;78.00;;;;;;5116841;28;20140;-78
2021/06/13 03:23:37;;;;;;;25.23;11.10;;;13.20;78.00;;;;;;5086612;28;20032;-79
2021/06/13 03:26:03;;;;;;;21.33;11.30;;;13.10;78.10;;;;;;5097968;28;20076;-79
2021/06/13 03:28:31;;;;;;;25.30;11.93;;;13.10;78.10;;;;;;5106600;28;20519;-78
2021/06/13 03:30:58;;;;;;;19.65;8.90;;;13.20;78.20;;;;;;5096104;28;20043;-79
2021/06/13 03:33:26;;;;;;;22.45;11.57;;;13.10;78.00;;;;;;5101870;28;20032;-78
2021/06/13 03:35:54;;;;;;;24.77;12.27;;;13.10;78.40;;;;;;5081449;28;20107;-79
2021/06/13 03:38:21;;;;;;;23.77;11.88;;;13.10;78.50;;;;;;5097962;28;20030;-78
2021/06/13 03:40:48;;;;;;;30.92;12.25;;;13.00;78.50;;;;;;5110869;28;20028;-78
2021/06/13 03:43:14;;;;;;;27.40;12.52;;;13.00;78.70;;;;;;5115916;28;20027;-78
2021/06/13 03:45:40;;;;;;;25.92;12.20;;;13.00;78.70;;;;;;5115528;28;20032;-79
2021/06/13 03:48:08;;;;;;;22.02;11.60;;;13.00;78.90;;;;;;5097389;28;20400;-79
2021/06/13 03:50:34;;;;;;;19.45;11.02;;;13.10;79.00;;;;;;5101039;28;20062;-78
2021/06/13 03:53:01;;;;;;;23.75;12.13;;;13.00;78.90;;;;;;5094875;28;20023;-78
2021/06/13 03:55:28;;;;;;;25.95;12.35;;;13.00;79.00;;;;;;5091454;28;20016;-79
2021/06/13 03:57:56;;;;;;;21.15;12.70;;;13.10;79.20;;;;;;5097272;28;20050;-78
2021/06/13 04:00:25;;;;;;;26.40;12.40;;;13.10;79.20;;;;;;5064164;28;20422;-78
2021/06/13 04:02:51;;;;;;;26.77;12.50;;;13.10;79.30;;;;;;5111053;28;20028;-78
2021/06/13 04:05:19;;;;;;;34.08;13.70;;;13.10;79.40;;;;;;5077523;28;20515;-79
2021/06/13 04:07:45;;;;;;;25.05;13.10;;;13.20;79.50;;;;;;5077058;28;20043;-78
2021/06/13 04:10:13;;;;;;;28.48;13.02;;;13.20;79.40;;;;;;5080052;28;20032;-79
2021/06/13 04:12:40;;;;;;;27.40;12.65;;;13.20;79.50;;;;;;5115280;28;20038;-79
2021/06/13 04:15:07;;;;;;;21.48;13.23;;;13.30;79.50;;;;;;5096969;28;20064;-79
2021/06/13 04:17:34;;;;;;;26.85;13.18;;;13.30;79.40;;;;;;5085826;28;20119;-79
2021/06/13 04:20:02;;;;;;;26.10;12.57;;;13.30;80.10;;;;;;5106554;28;20053;-78
2021/06/13 04:22:30;;;;;;;31.38;13.55;;;13.40;79.50;;;;;;5096900;28;20016;-78
2021/06/13 04:24:56;;;;;;;26.23;11.88;;;13.40;79.40;;;;;;5095096;28;20036;-79
2021/06/13 04:27:25;;;;;;;25.48;13.80;;;13.50;79.30;;;;;;5082651;28;20035;-79
2021/06/13 04:29:51;;;;;;;26.98;12.65;;;13.50;79.40;;;;;;5096884;28;20110;-79
2021/06/13 04:32:16;;;;;;;30.25;13.75;;;13.50;79.30;;;;;;5114025;28;20089;-79
2021/06/13 04:34:42;;;;;;;23.80;12.80;;;13.60;79.20;;;;;;5070114;28;20055;-78
2021/06/13 04:37:09;;;;;;;26.27;12.90;;;13.60;79.20;;;;;;5083410;28;20065;-78
2021/06/13 04:39:36;;;;;;;22.08;12.38;;;13.70;79.20;;;;;;5115078;28;20032;-78
2021/06/13 04:42:04;;;;;;;29.65;13.43;;;13.70;79.10;;;;;;5096877;28;20019;-79
2021/06/13 04:44:31;;;;;;;24.70;13.05;;;13.70;79.10;;;;;;5096459;28;20036;-78
2021/06/13 04:46:56;;;;;;;32.55;14.00;;;13.70;78.80;;;;;;5097134;28;20077;-79
2021/06/13 04:49:22;;;;;;;23.52;12.40;;;13.70;78.90;;;;;;5090157;28;20027;-79
2021/06/13 04:51:53;;;;;;;25.77;12.90;;;13.80;79.00;;;;;;5080252;28;20388;-79
2021/06/13 04:54:27;;;;;;;26.92;13.65;;;13.80;78.90;;;;;;5098473;28;20480;-79
2021/06/13 04:57:22;;;;;;;33.05;13.88;;;13.90;78.90;;;;;;5096458;28;20027;-79
2021/06/13 04:59:47;;;;;;;25.98;12.70;;;14.00;79.00;;;;;;5104890;28;20476;-78
2021/06/13 05:02:15;;;;;;;33.33;11.93;;;14.00;78.60;;;;;;5078520;28;20032;-79
2021/06/13 05:04:41;;;;;;;23.38;12.35;;;14.00;78.50;;;;;;5106880;28;20034;-78
2021/06/13 05:07:06;;;;;;;25.63;11.85;;;14.00;78.50;;;;;;5114957;28;20472;-79
2021/06/13 05:09:32;;;;;;;28.30;12.93;;;14.10;78.40;;;;;;5096231;28;20036;-79
2021/06/13 05:11:58;;;;;;;28.88;11.90;;;14.20;78.40;;;;;;5102070;28;20095;-79
2021/06/13 05:14:24;;;;;;;26.90;11.73;;;14.20;78.30;;;;;;5073038;28;20040;-79
2021/06/13 05:16:49;;;;;;;30.35;12.60;;;14.20;78.20;;;;;;5114106;28;20051;-79
2021/06/13 05:19:15;;;;;;;26.75;12.13;;;14.30;78.20;;;;;;5095981;28;20040;-79
2021/06/13 05:21:41;;;;;;;26.00;12.40;;;14.30;78.20;;;;;;5084532;28;20047;-79
2021/06/13 05:24:07;;;;;;;21.83;11.70;;;14.40;78.10;;;;;;5076072;28;20115;-79
2021/06/13 05:26:33;;;;;;;23.58;11.32;;;14.50;77.90;;;;;;5093894;28;20032;-79
2021/06/13 05:28:58;;;;;;;23.02;11.02;;;14.50;78.20;;;;;;5099200;28;20031;-78
2021/06/13 05:31:24;;;;;;;21.15;11.32;;;14.50;77.40;;;;;;5090754;28;20380;-78
2021/06/13 05:33:51;;;;;;;27.02;11.52;;;14.50;78.20;;;;;;5107866;28;20039;-79
2021/06/13 05:36:16;;;;;;;26.08;10.82;;;14.60;77.50;;;;;;5086094;28;20047;-79
2021/06/13 05:38:44;;;;;;;21.63;11.00;;;14.60;77.30;;;;;;5085201;28;20369;-78
2021/06/13 05:41:11;;;;;;;26.17;10.63;;;14.70;77.20;;;;;;5077098;28;20111;-79
2021/06/13 05:43:38;;;;;;;19.25;10.65;;;14.80;77.10;;;;;;5079782;28;20114;-78
2021/06/13 05:46:03;;;;;;;21.05;10.45;;;14.80;76.60;;;;;;5073860;28;20464;-79
2021/06/13 05:48:30;;;;;;;22.05;10.63;;;14.90;76.60;;;;;;5087047;28;20032;-78
2021/06/13 05:50:55;;;;;;;23.90;10.98;;;15.00;76.30;;;;;;5102964;28;20024;-78
2021/06/13 05:53:21;;;;;;;19.50;10.07;;;15.10;76.10;;;;;;5098765;28;20028;-83
2021/06/13 05:55:47;;;;;;;23.65;10.50;;;15.10;75.60;;;;;;5083092;28;20494;-82
2021/06/13 05:58:13;;;;;;;25.77;11.05;;;15.10;75.20;;;;;;5084288;28;20035;-83
2021/06/13 06:00:39;;;;;;;19.48;10.35;;;15.10;75.00;;;;;;5102721;28;20110;-83
2021/06/13 06:03:06;;;;;;;23.73;10.10;;;15.10;75.10;;;;;;5085623;28;20032;-82
2021/06/13 06:05:32;;;;;;;23.45;10.10;;;15.20;75.30;;;;;;5103644;28;20028;-83
2021/06/13 06:07:58;;;;;;;21.45;9.38;;;15.30;75.80;;;;;;5102166;28;20032;-83
2021/06/13 06:10:25;;;;;;;19.45;8.25;;;15.30;74.80;;;;;;5081985;28;20380;-83
2021/06/13 06:12:54;;;;;;;17.67;7.90;;;15.40;74.40;;;;;;5100159;28;20024;-84
2021/06/13 06:15:21;;;;;;;16.08;8.63;;;15.50;73.80;;;;;;5099807;28;20413;-83
2021/06/13 06:17:48;;;;;;;18.13;7.72;;;15.70;73.50;;;;;;5082660;28;20040;-83
2021/06/13 06:20:16;;;;;;;18.63;8.15;;;15.70;73.20;;;;;;5109740;28;20051;-83
2021/06/13 06:22:42;;;;;;;20.50;8.45;;;15.90;72.80;;;;;;5081735;28;20388;-83
2021/06/13 06:25:09;;;;;;;17.65;8.02;;;16.00;72.10;;;;;;5082128;28;20024;-83
2021/06/13 06:27:39;;;;;;;19.88;8.13;;;16.10;71.30;;;;;;5085348;28;20058;-83
2021/06/13 06:30:06;;;;;;;20.48;8.48;;;16.10;70.30;;;;;;5087035;28;20023;-83
2021/06/13 06:32:38;;;;;;;15.27;7.82;;;16.10;70.50;;;;;;5090494;28;20028;-83
2021/06/13 06:35:05;;;;;;;19.25;7.55;;;16.20;70.60;;;;;;5089039;28;20038;-83
2021/06/13 06:37:30;;;;;;;19.17;7.40;;;16.40;69.90;;;;;;5083711;28;20044;-83
2021/06/13 06:39:56;;;;;;;19.77;6.55;;;16.40;69.40;;;;;;5084830;28;20066;-83
2021/06/13 06:42:22;;;;;;;15.15;6.80;;;16.50;68.40;;;;;;5102295;28;20028;-82
2021/06/13 06:44:47;;;;;;;13.88;7.28;;;16.60;67.90;;;;;;5119320;28;20383;-83
2021/06/13 06:47:13;;;;;;;17.45;6.68;;;16.70;67.40;;;;;;5101945;28;20546;-81
2021/06/13 06:49:39;;;;;;;13.20;6.50;;;16.80;67.40;;;;;;5118075;28;20027;-81
2021/06/13 06:52:06;;;;;;;16.77;6.55;;;17.00;67.30;;;;;;5102256;28;20035;-82
2021/06/13 06:54:33;;;;;;;12.18;6.88;;;17.20;66.50;;;;;;5104459;28;20062;-81
2021/06/13 06:56:58;;;;;;;18.38;7.07;;;17.30;65.00;;;;;;5082562;28;20035;-81
2021/06/13 06:59:24;;;;;;;18.65;6.95;;;17.40;65.20;;;;;;5104886;28;20024;-81
2021/06/13 07:01:50;;;;;;;14.63;6.40;;;17.60;64.40;;;;;;5111130;28;20395;-81
2021/06/13 07:04:15;;;;;;;14.13;6.70;;;17.70;64.20;;;;;;5118993;28;20028;-82
2021/06/13 07:06:41;;;;;;;14.57;6.00;;;17.80;63.90;;;;;;5120013;28;20035;-82
2021/06/13 07:09:07;;;;;;;13.73;6.63;;;17.90;63.60;;;;;;5117760;28;20387;-78
2021/06/13 07:11:32;;;;;;;15.85;6.18;;;18.10;63.10;;;;;;5120152;28;20106;-77
2021/06/13 07:13:58;;;;;;;17.65;6.22;;;18.20;62.90;;;;;;5101240;28;20445;-77
2021/06/13 07:16:24;;;;;;;13.98;6.03;;;18.40;61.70;;;;;;5096045;28;20065;-77
2021/06/13 07:18:50;;;;;;;18.00;6.03;;;18.50;61.20;;;;;;5091657;28;20391;-78
2021/06/13 07:21:16;;;;;;;16.92;6.28;;;18.60;60.60;;;;;;5094527;28;20030;-77
2021/06/13 07:23:41;;;;;;;19.88;6.45;;;18.70;60.00;;;;;;5114986;28;20464;-81
2021/06/13 07:26:07;;;;;;;19.88;6.43;;;18.70;60.00;;;;;;5115398;28;20498;-81
2021/06/13 07:28:34;;;;;;;17.15;6.15;;;18.80;59.60;;;;;;5115839;28;20028;-81
2021/06/13 07:31:03;;;;;;;16.98;6.28;;;18.80;59.20;;;;;;5076082;28;20590;-81
2021/06/13 07:33:29;;;;;;;11.18;5.47;;;18.80;59.30;;;;;;5100222;28;20028;-81
2021/06/13 07:35:56;;;;;;;14.80;5.53;;;18.90;59.50;;;;;;5078160;28;20115;-81
2021/06/13 07:38:22;;;;;;;16.02;5.80;;;19.00;59.20;;;;;;5116244;28;20031;-80
2021/06/13 07:40:48;;;;;;;13.90;5.82;;;19.10;58.70;;;;;;5098483;28;20479;-79
2021/06/13 07:43:14;;;;;;;14.60;6.03;;;19.30;58.40;;;;;;5098377;28;20035;-79
2021/06/13 07:45:41;;;;;;;13.93;5.47;;;19.30;58.10;;;;;;5098183;28;20118;-79
2021/06/13 07:48:11;;;;;;;14.63;5.80;;;19.30;58.10;;;;;;5102983;28;20468;-79
2021/06/13 07:50:37;;;;;;;16.88;5.72;;;19.40;57.80;;;;;;5077448;28;20029;-77
2021/06/13 07:53:04;;;;;;;12.07;6.05;;;19.50;57.80;;;;;;5077833;28;20062;-80
2021/06/13 07:55:29;;;;;;;15.35;5.68;;;19.60;56.80;;;;;;5082219;28;20020;-80
2021/06/13 07:57:57;;;;;;;12.15;5.35;;;19.70;56.80;;;;;;5097180;28;20019;-80
2021/06/13 08:00:23;;;;;;;13.90;5.45;;;19.70;57.00;;;;;;5069580;28;20491;-80
2021/06/13 08:02:50;;;;;;;12.68;5.18;;;19.80;56.90;;;;;;5068881;28;20166;-80
2021/06/13 08:05:36;;;;;;;15.30;5.07;;;19.90;57.10;;;;;;5078986;28;20036;-80
2021/06/13 08:08:07;;;;;;;15.70;5.47;;;19.90;56.60;;;;;;5095019;28;20119;-80
2021/06/13 08:10:34;;;;;;;14.88;5.68;;;20.10;56.00;;;;;;5095604;28;20016;-80
2021/06/13 08:13:01;;;;;;;15.38;5.70;;;20.20;55.40;;;;;;5098074;28;20020;-80
2021/06/13 08:15:27;;;;;;;13.48;5.40;;;20.10;54.30;;;;;;5077044;28;20029;-80
2021/06/13 08:17:53;;;;;;;13.88;5.40;;;20.10;55.10;;;;;;5107727;28;20035;-80
2021/06/13 08:20:19;;;;;;;14.95;5.05;;;20.20;55.90;;;;;;5080335;28;20045;-80
2021/06/13 08:22:45;;;;;;;15.15;5.43;;;20.30;55.40;;;;;;5114262;28;20073;-80
2021/06/13 08:25:13;;;;;;;16.00;5.10;;;20.50;55.10;;;;;;5095205;28;20095;-80
2021/06/13 08:27:39;;;;;;;13.17;5.10;;;20.50;54.30;;;;;;5094789;28;20103;-80
2021/06/13 08:30:07;;;;;;;10.30;4.13;;;20.60;54.20;;;;;;5077801;28;20131;-80
2021/06/13 08:32:33;;;;;;;11.80;4.75;;;20.80;53.80;;;;;;5105889;28;20516;-81
2021/06/13 08:34:58;;;;;;;14.77;5.03;;;20.90;53.20;;;;;;5076861;28;20099;-81
2021/06/13 08:37:24;;;;;;;12.27;4.47;;;21.00;52.80;;;;;;5083690;28;20526;-81
2021/06/13 08:39:50;;;;;;;15.73;5.18;;;21.10;52.40;;;;;;5103433;28;20029;-80
2021/06/13 08:42:16;;;;;;;14.63;5.00;;;21.10;51.10;;;;;;5081499;28;20125;-81
2021/06/13 08:44:42;;;;;;;12.00;3.88;;;20.90;50.50;;;;;;5114616;28;20046;-81
2021/06/13 08:47:14;;;;;;;13.10;4.80;;;20.90;51.80;;;;;;5096388;28;20023;-81
2021/06/13 08:49:40;;;;;;;11.43;4.30;;;21.00;51.70;;;;;;5102694;28;20051;-80
2021/06/13 08:52:08;;;;;;;13.90;4.85;;;21.10;51.80;;;;;;5094389;28;20362;-81
2021/06/13 08:54:34;;;;;;;11.50;4.40;;;21.30;50.70;;;;;;5107559;28;20024;-81
2021/06/13 08:57:00;;;;;;;13.27;4.55;;;21.30;50.10;;;;;;5096581;28;20076;-81
2021/06/13 08:59:25;;;;;;;12.38;4.78;;;21.30;49.70;;;;;;5079654;28;20030;-81
2021/06/13 09:01:51;;;;;;;12.93;4.72;;;21.20;49.00;;;;;;5114768;28;20027;-81
2021/06/13 09:04:16;;;;;;;11.85;5.10;;;21.10;49.20;;;;;;5078889;28;20043;-80
2021/06/13 09:06:42;;;;;;;11.23;4.70;;;21.00;49.00;;;;;;5094381;28;20150;-80
2021/06/13 09:09:22;;;;;;;11.35;4.53;;;20.90;49.90;;;;;;5083477;28;20395;-80
2021/06/13 09:12:05;;;;;;;11.38;4.72;;;21.10;49.80;;;;;;5095597;28;20027;-80
2021/06/13 09:14:42;;;;;;;12.13;4.57;;;21.20;49.20;;;;;;5060307;28;20020;-80
2021/06/13 09:17:18;;;;;;;10.93;5.22;;;21.40;48.80;;;;;;5094001;28;20023;-80
2021/06/13 09:20:05;;;;;;;13.40;5.25;;;21.60;48.70;;;;;;5055898;28;20362;-81
2021/06/13 09:22:31;;;;;;;11.57;4.50;;;21.80;48.80;;;;;;5072631;28;20032;-80
2021/06/13 09:25:07;;;;;;;8.85;4.47;;;22.00;49.40;;;;;;5072876;28;20040;-81
2021/06/13 09:27:33;;;;;;;11.50;5.20;;;22.20;48.70;;;;;;5087681;28;20024;-81
2021/06/13 09:29:58;;;;;;;11.88;4.55;;;22.30;47.80;;;;;;5092835;28;20043;-81
2021/06/13 09:32:24;;;;;;;9.73;4.40;;;22.30;48.10;;;;;;5092646;28;20050;-81
2021/06/13 09:35:19;;;;;;;9.50;4.38;;;22.40;48.00;;;;;;5093016;28;20492;-81
2021/06/13 09:38:22;;;;;;;11.80;4.93;;;22.60;48.10;;;;;;5092542;28;20039;-81
2021/06/13 09:41:14;;;;;;;10.05;4.47;;;22.80;47.90;;;;;;5092409;28;20073;-81
2021/06/13 09:43:41;;;;;;;16.73;5.95;;;23.00;48.40;;;;;;5093651;28;20105;-81
2021/06/13 09:46:09;;;;;;;15.23;5.57;;;23.20;46.80;;;;;;5092232;28;20165;-81
2021/06/13 09:48:43;;;;;;;13.27;5.25;;;23.10;47.10;;;;;;5093536;28;20464;-80
2021/06/13 09:51:14;;;;;;;14.27;5.70;;;23.10;47.00;;;;;;5078165;28;20028;-81
2021/06/13 09:53:45;;;;;;;11.35;5.47;;;23.10;47.20;;;;;;5072869;28;20028;-81
2021/06/13 09:56:15;;;;;;;12.15;5.45;;;23.10;47.20;;;;;;5073163;28;20013;-81
2021/06/13 09:58:51;;;;;;;11.85;5.43;;;23.20;46.70;;;;;;5072165;28;20093;-81
2021/06/13 10:01:17;;;;;;;11.82;4.93;;;23.20;46.60;;;;;;5073524;28;20029;-81
2021/06/13 10:03:47;;;;;;;13.15;5.30;;;23.20;47.10;;;;;;5071989;28;20028;-81
2021/06/13 10:06:13;;;;;;;13.85;5.20;;;23.30;47.20;;;;;;5055919;28;20497;-81
2021/06/13 10:08:41;;;;;;;14.38;5.00;;;23.40;46.90;;;;;;5072096;28;20059;-81
2021/06/13 10:11:08;;;;;;;11.63;5.15;;;23.40;46.40;;;;;;5039537;28;20024;-81
2021/06/13 10:13:55;;;;;;;12.40;4.78;;;23.40;46.40;;;;;;5055373;28;20504;-81
2021/06/13 10:16:30;;;;;;;9.90;4.80;;;23.50;46.00;;;;;;5071916;28;20218;-81
2021/06/13 10:18:59;;;;;;;19.20;5.80;;;23.70;46.70;;;;;;5083689;28;20470;-81
2021/06/13 10:21:36;;;;;;;8.52;4.28;;;23.80;46.40;;;;;;5094858;28;20078;-81
2021/06/13 10:24:09;;;;;;;10.68;4.75;;;23.80;46.80;;;;;;5095259;28;20060;-81
2021/06/13 10:26:37;;;;;;;9.27;4.00;;;23.90;46.40;;;;;;5095313;28;20051;-81
2021/06/13 10:29:04;;;;;;;11.70;4.70;;;24.00;45.90;;;;;;5113583;28;20106;-81
2021/06/13 10:31:31;;;;;;;12.88;4.80;;;24.00;45.30;;;;;;5113456;28;20024;-81
2021/06/13 10:33:57;;;;;;;11.68;4.65;;;24.00;45.30;;;;;;5095432;28;20032;-81
2021/06/13 10:36:23;;;;;;;14.85;4.75;;;24.10;45.40;;;;;;5082289;28;20028;-81
2021/06/13 10:38:49;;;;;;;9.52;4.25;;;24.20;44.70;;;;;;5075275;28;20036;-81
2021/06/13 10:41:14;;;;;;;12.68;4.85;;;24.30;44.30;;;;;;5075402;28;20027;-81
2021/06/13 10:43:42;;;;;;;10.68;4.45;;;24.40;43.10;;;;;;5093292;28;20426;-81
2021/06/13 10:46:17;;;;;;;11.57;4.10;;;24.40;43.80;;;;;;5094980;28;20503;-79
2021/06/13 10:48:49;;;;;;;11.10;4.13;;;24.50;44.20;;;;;;5074881;28;20058;-83
2021/06/13 10:51:31;;;;;;;13.23;4.55;;;24.60;44.00;;;;;;5094911;28;20084;-79
2021/06/13 10:54:20;;;;;;;13.38;4.30;;;24.70;43.90;;;;;;5078836;28;20020;-80
2021/06/13 10:56:46;;;;;;;9.55;4.20;;;24.70;43.30;;;;;;5078740;28;20050;-78
2021/06/13 10:59:13;;;;;;;12.93;4.32;;;24.80;44.20;;;;;;5062455;28;20089;-79
2021/06/13 11:02:09;;;;;;;11.35;4.40;;;24.80;43.60;;;;;;5078755;28;20115;-78
2021/06/13 11:04:54;;;;;;;11.90;4.28;;;25.00;43.40;;;;;;5093448;28;20085;-78
2021/06/13 11:07:29;;;;;;;9.27;4.22;;;25.00;43.40;;;;;;5111135;28;20115;-79
2021/06/13 11:10:08;;;;;;;10.32;5.05;;;25.00;43.40;;;;;;5117808;28;20020;-79
2021/06/13 11:12:53;;;;;;;12.93;4.90;;;25.10;43.00;;;;;;5102730;28;20054;-81
2021/06/13 11:15:30;;;;;;;13.20;4.57;;;25.10;42.70;;;;;;5083610;28;20019;-75
2021/06/13 11:18:14;;;;;;;14.68;4.57;;;25.00;43.00;;;;;;5100053;28;20492;-76
2021/06/13 11:21:09;;;;;;;11.23;4.70;;;24.90;43.30;;;;;;5078157;28;20082;-76
2021/06/13 11:23:36;;;;;;;9.43;4.32;;;24.90;43.20;;;;;;5071627;28;20452;-77
2021/06/13 11:26:03;;;;;;;13.32;5.15;;;24.90;43.80;;;;;;5082297;28;20016;-77
2021/06/13 11:28:35;;;;;;;9.77;4.65;;;24.90;43.60;;;;;;5097892;28;20469;-77
2021/06/13 11:31:21;;;;;;;12.43;4.63;;;24.90;42.50;;;;;;5086420;28;20418;-78
2021/06/13 11:33:55;;;;;;;9.55;4.10;;;24.80;42.10;;;;;;5099113;28;20008;-78
2021/06/13 11:36:22;;;;;;;15.73;5.40;;;24.80;43.60;;;;;;5095955;28;20369;-77
2021/06/13 11:38:50;;;;;;;12.63;5.50;;;24.90;42.20;;;;;;5076614;28;20008;-78
2021/06/13 11:41:26;;;;;;;14.57;4.45;;;24.80;41.60;;;;;;5074110;28;20477;-76
2021/06/13 11:43:52;;;;;;;11.65;4.53;;;24.80;43.90;;;;;;5074136;28;20126;-76
2021/06/13 11:46:32;;;;;;;12.57;4.47;;;24.90;43.10;;;;;;5105176;28;20035;-76
2021/06/13 11:48:59;;;;;;;11.55;4.55;;;24.90;43.10;;;;;;5106573;28;20480;-76
2021/06/13 11:51:24;;;;;;;14.93;4.57;;;25.00;44.30;;;;;;5095466;28;20495;-76
2021/06/13 11:54:07;;;;;;;10.68;3.83;;;25.20;43.60;;;;;;5073757;28;20024;-76
2021/06/13 11:56:36;;;;;;;10.05;4.18;;;25.40;43.20;;;;;;5098251;28;20831;-76
2021/06/13 11:59:13;;;;;;;8.88;4.43;;;25.60;43.20;;;;;;5084273;28;20040;-77
2021/06/13 12:01:40;;;;;;;8.57;3.55;;;25.70;42.90;;;;;;5080035;28;20126;-76
2021/06/13 12:04:10;;;;;;;8.73;4.28;;;25.80;42.60;;;;;;5075844;28;20028;-76
2021/06/13 12:06:37;;;;;;;10.32;3.90;;;25.80;42.00;;;;;;5096168;28;20036;-80
2021/06/13 12:09:08;;;;;;;12.00;4.27;;;25.90;41.50;;;;;;5095171;28;20055;-80
2021/06/13 12:11:39;;;;;;;9.45;4.00;;;25.90;41.60;;;;;;5083671;28;20065;-79
2021/06/13 12:14:23;;;;;;;8.00;3.67;;;26.00;41.40;;;;;;5095903;28;20024;-75
2021/06/13 12:16:57;;;;;;;8.73;4.07;;;26.00;41.20;;;;;;5112319;28;20421;-75
2021/06/13 12:19:35;;;;;;;10.55;4.35;;;26.10;41.40;;;;;;5108135;28;20100;-75
2021/06/13 12:28:08;;;;;;;7.82;3.50;;;26.20;39.90;;;;;;5111404;28;20031;-74
2021/06/13 12:30:35;;;;;;;7.55;3.83;;;26.30;39.90;;;;;;5095180;28;20024;-74
2021/06/13 12:33:07;;;;;;;10.30;3.97;;;26.40;40.20;;;;;;5074419;28;20043;-74
2021/06/13 12:35:35;;;;;;;8.07;3.60;;;26.40;38.80;;;;;;5114787;28;20030;-75
2021/06/13 12:38:06;;;;;;;7.22;4.00;;;26.40;38.40;;;;;;5113560;28;20020;-75
2021/06/13 12:40:45;;;;;;;6.85;2.90;;;26.50;38.20;;;;;;5090646;28;20080;-76
2021/06/13 12:43:12;;;;;;;9.10;3.30;;;26.50;39.10;;;;;;5095286;28;20054;-76
2021/06/13 12:45:40;;;;;;;9.60;3.90;;;26.70;39.40;;;;;;5095134;28;20059;-76
2021/06/13 12:48:08;;;;;;;8.52;3.78;;;26.80;39.00;;;;;;5072218;28;20028;-76
2021/06/13 12:50:43;;;;;;;8.32;3.85;;;27.00;38.70;;;;;;5095903;28;20388;-77
2021/06/13 12:53:12;;;;;;;9.50;3.72;;;27.00;38.40;;;;;;5076484;28;20457;-76